Time;durP1;ratioP1;P1;durP2;ratioP2;P2;SDS_P1;SDS_P2;PMS_P1;PMS_P2;Temp;Humidity;BMP_temperature;BMP_pressure;BME280_temperature;BME280_humidity;BME280_pressure;Samples;Min_cycle;Max_cycle;Signal;HPM_P1;HPM_P2
2023/02/17 00:01:19;;;;;;;0.70;0.70;;;8.10;61.00;;;7.85;45.63;95625.50;4993799;28;20225;-17
2023/02/17 00:03:47;;;;;;;0.60;0.60;;;8.10;61.00;;;7.87;45.98;95638.41;4993443;28;20209;-17
2023/02/17 00:06:17;;;;;;;0.70;0.70;;;8.10;61.00;;;7.91;45.94;95641.50;4992496;28;20234;-17
2023/02/17 00:08:45;;;;;;;0.70;0.70;;;8.20;61.00;;;7.91;46.18;95634.50;4993449;28;20186;-17
2023/02/17 00:11:13;;;;;;;0.60;0.60;;;8.20;61.10;;;7.90;45.95;95626.81;4992836;28;20190;-18
2023/02/17 00:13:41;;;;;;;0.60;0.60;;;8.20;61.20;;;7.93;46.47;95631.72;4993182;28;20622;-17
2023/02/17 00:16:27;;;;;;;0.70;0.70;;;8.20;61.30;;;7.98;46.07;95630.31;4993175;28;20630;-18
2023/02/17 00:18:58;;;;;;;0.65;0.65;;;8.20;61.00;;;7.96;46.38;95628.81;4993668;28;20189;-17
2023/02/17 00:21:28;;;;;;;0.80;0.80;;;8.30;61.40;;;7.98;46.47;95643.38;4993372;28;20638;-18
2023/02/17 00:23:57;;;;;;;0.70;0.70;;;8.30;61.30;;;7.97;46.17;95630.44;4993488;28;20262;-18
2023/02/17 00:26:24;;;;;;;0.60;0.60;;;8.30;61.30;;;8.00;47.17;95623.09;4993491;28;20520;-17
2023/02/17 00:28:51;;;;;;;0.68;0.68;;;8.40;61.80;;;8.05;46.92;95621.84;4993161;28;20626;-20
2023/02/17 00:31:22;;;;;;;0.52;0.52;;;8.30;61.70;;;8.10;46.92;95617.75;4992329;28;20189;-17
2023/02/17 00:33:54;;;;;;;0.80;0.80;;;8.40;61.90;;;8.13;47.26;95614.81;4976431;28;20556;-17
2023/02/17 00:36:22;;;;;;;0.70;0.70;;;8.40;62.10;;;8.22;47.30;95614.84;4993348;28;20193;-17
2023/02/17 00:38:49;;;;;;;0.60;0.60;;;8.50;62.00;;;8.24;47.26;95620.72;4992156;28;20287;-17
2023/02/17 00:41:17;;;;;;;0.60;0.60;;;8.50;62.90;;;8.26;47.12;95606.50;4993058;28;20189;-18
2023/02/17 00:43:44;;;;;;;0.60;0.60;;;8.50;61.90;;;8.34;47.35;95616.19;4992296;28;20194;-17
2023/02/17 00:46:12;;;;;;;0.60;0.60;;;8.50;61.90;;;8.37;47.02;95615.84;4991890;28;20221;-17
2023/02/17 00:48:40;;;;;;;0.80;0.80;;;8.60;61.90;;;8.43;47.07;95617.00;4992267;28;20205;-17
2023/02/17 00:51:08;;;;;;;0.70;0.70;;;8.70;62.00;;;8.47;47.11;95613.97;4991896;28;20312;-17
2023/02/17 00:53:35;;;;;;;0.60;0.60;;;8.70;61.90;;;8.52;46.82;95616.09;4991960;28;20225;-17
2023/02/17 00:56:03;;;;;;;0.70;0.70;;;8.80;62.00;;;8.58;46.68;95612.00;4975766;28;20205;-18
2023/02/17 00:58:31;;;;;;;0.60;0.60;;;8.80;61.90;;;8.62;46.95;95618.56;4992790;28;20250;-18
2023/02/17 01:00:58;;;;;;;0.80;0.80;;;8.90;62.00;;;8.70;46.82;95605.47;4992749;28;20578;-17
2023/02/17 01:03:26;;;;;;;0.60;0.60;;;8.90;61.80;;;8.76;46.26;95604.00;4992661;28;20202;-18
2023/02/17 01:05:54;;;;;;;0.60;0.60;;;8.90;61.80;;;8.77;46.17;95598.59;4992410;28;20233;-18
2023/02/17 01:08:22;;;;;;;0.70;0.70;;;9.00;61.70;;;8.80;46.25;95600.06;4991612;28;20205;-18
2023/02/17 01:10:51;;;;;;;0.70;0.70;;;9.10;61.80;;;8.84;46.47;95585.69;4975654;28;20686;-17
2023/02/17 01:13:18;;;;;;;0.60;0.60;;;9.10;61.70;;;8.85;46.17;95583.88;4991616;28;20620;-17
2023/02/17 01:15:50;;;;;;;0.70;0.70;;;9.10;61.50;;;8.90;46.39;95586.81;4975766;28;20274;-18
2023/02/17 01:18:21;;;;;;;0.60;0.60;;;9.10;61.50;;;8.91;46.27;95576.22;4992327;28;20190;-18
2023/02/17 01:20:50;;;;;;;0.60;0.60;;;9.20;61.50;;;8.92;46.06;95575.25;4992785;28;20190;-17
2023/02/17 01:23:17;;;;;;;0.70;0.70;;;9.20;61.50;;;8.90;46.24;95569.34;4992843;28;20197;-17
2023/02/17 01:25:46;;;;;;;0.60;0.60;;;9.20;61.40;;;8.93;46.08;95571.63;4994780;28;20638;-17
2023/02/17 01:28:20;;;;;;;0.60;0.60;;;9.30;61.40;;;8.96;46.01;95573.91;4994962;28;20190;-17
2023/02/17 01:30:48;;;;;;;0.60;0.60;;;9.30;61.40;;;8.95;46.03;95566.25;4994961;28;20227;-17
2023/02/17 01:33:15;;;;;;;0.60;0.60;;;9.30;61.40;;;8.97;46.18;95557.25;4995882;28;20233;-17
2023/02/17 01:35:44;;;;;;;0.60;0.60;;;9.30;61.40;;;9.01;46.23;95560.34;4979013;28;20209;-17
2023/02/17 01:38:11;;;;;;;0.70;0.70;;;9.30;61.40;;;9.00;46.21;95553.47;4995834;28;20206;-17
2023/02/17 01:40:46;;;;;;;0.70;0.70;;;9.30;61.50;;;9.05;45.98;95539.91;4994760;28;20218;-18
2023/02/17 01:43:16;;;;;;;0.80;0.80;;;9.30;61.40;;;9.12;45.86;95539.06;4994752;28;20204;-17
2023/02/17 01:45:53;;;;;;;0.60;0.60;;;9.30;61.40;;;9.16;45.85;95539.53;4994550;28;20576;-18
2023/02/17 01:48:36;;;;;;;0.60;0.60;;;9.40;61.40;;;9.15;45.91;95534.47;4995483;28;20219;-17
2023/02/17 01:51:17;;;;;;;0.60;0.60;;;9.40;61.40;;;9.12;45.82;95544.28;4995569;28;20182;-17
2023/02/17 01:54:02;;;;;;;0.70;0.70;;;9.40;61.40;;;9.05;46.21;95527.63;4963248;28;20194;-18
2023/02/17 01:56:32;;;;;;;0.70;0.70;;;9.40;61.40;;;9.06;46.26;95523.22;4995579;28;20197;-18
2023/02/17 01:59:09;;;;;;;0.60;0.60;;;9.30;61.50;;;9.04;46.57;95525.19;4994474;28;20321;-18
2023/02/17 02:01:38;;;;;;;0.70;0.70;;;9.30;61.60;;;9.03;46.84;95521.72;4994722;28;20190;-17
2023/02/17 02:04:06;;;;;;;0.70;0.70;;;9.30;61.80;;;9.05;46.52;95524.19;4994555;28;20545;-17
2023/02/17 02:06:37;;;;;;;0.60;0.60;;;9.30;61.90;;;9.09;46.47;95525.47;4977925;28;20665;-17
2023/02/17 02:09:19;;;;;;;0.80;0.80;;;9.30;61.80;;;9.13;46.49;95521.56;4994349;28;20198;-18
2023/02/17 02:11:50;;;;;;;0.60;0.60;;;9.30;61.90;;;9.09;46.60;95521.09;4978243;28;20204;-17
2023/02/17 02:14:19;;;;;;;0.70;0.70;;;9.30;62.00;;;9.13;46.54;95517.13;4995220;28;20182;-17
2023/02/17 02:17:18;;;;;;;0.60;0.60;;;9.30;61.90;;;9.20;46.54;95517.28;4994560;28;20205;-17
2023/02/17 02:20:26;;;;;;;0.60;0.60;;;9.30;61.80;;;9.19;46.78;95518.28;4994591;28;20606;-17
2023/02/17 02:23:38;;;;;;;0.60;0.60;;;9.40;61.80;;;9.19;46.70;95502.56;4994149;28;20220;-19
2023/02/17 02:26:24;;;;;;;0.65;0.65;;;9.40;61.80;;;9.21;46.87;95507.63;4995006;28;20202;-17
2023/02/17 02:29:15;;;;;;;0.70;0.70;;;9.40;62.00;;;9.19;46.92;95509.59;4994923;28;20196;-18
2023/02/17 02:31:58;;;;;;;0.80;0.80;;;9.40;61.90;;;9.12;47.33;95505.03;4993962;28;20216;-18
2023/02/17 02:35:13;;;;;;;0.80;0.80;;;9.40;62.30;;;9.11;47.34;95502.59;4994340;28;20200;-17
2023/02/17 02:38:13;;;;;;;0.70;0.70;;;9.40;62.50;;;9.10;47.52;95514.03;5019045;28;20196;-18
2023/02/17 02:40:46;;;;;;;0.65;0.65;;;9.30;62.30;;;9.10;47.72;95506.19;4994082;28;20197;-17
2023/02/17 02:43:14;;;;;;;0.55;0.55;;;9.40;62.70;;;9.07;48.08;95499.50;4977824;28;20202;-18
2023/02/17 02:45:42;;;;;;;0.63;0.63;;;9.30;62.70;;;9.07;48.26;95503.88;4994112;28;20209;-18
2023/02/17 02:48:09;;;;;;;0.70;0.70;;;9.30;63.00;;;9.04;48.46;95505.03;4993631;28;20224;-17
2023/02/17 02:51:10;;;;;;;0.68;0.68;;;9.30;63.10;;;9.06;48.31;95497.84;4993658;28;20754;-17
2023/02/17 02:53:57;;;;;;;0.60;0.60;;;9.20;63.00;;;9.05;48.94;95498.03;4993690;28;20705;-18
2023/02/17 02:56:50;;;;;;;0.60;0.60;;;9.20;63.50;;;9.04;49.32;95512.91;4977674;28;20663;-17
2023/02/17 02:59:40;;;;;;;0.85;0.85;;;9.30;63.80;;;9.07;49.34;95499.50;4994814;28;20197;-18
2023/02/17 03:02:29;;;;;;;0.90;0.90;;;9.20;63.60;;;9.10;49.42;95500.97;4993593;28;20202;-18
2023/02/17 03:05:22;;;;;;;0.60;0.60;;;9.30;63.80;;;9.16;49.41;95508.13;4993474;28;20232;-18
2023/02/17 03:08:08;;;;;;;0.80;0.80;;;9.30;63.80;;;9.21;49.69;95502.41;4977400;28;20637;-18
2023/02/17 03:10:35;;;;;;;0.60;0.60;;;9.40;64.40;;;9.29;49.87;95497.16;4993485;28;20697;-17
2023/02/17 03:13:03;;;;;;;0.70;0.70;;;9.40;64.40;;;9.31;49.53;95503.00;4977268;28;20534;-17
2023/02/17 03:15:33;;;;;;;0.50;0.50;;;9.40;64.30;;;9.35;49.82;95495.63;4993433;28;20201;-18
2023/02/17 03:18:02;;;;;;;0.60;0.60;;;9.60;64.40;;;9.44;49.14;95497.25;4977186;28;20247;-17
2023/02/17 03:20:45;;;;;;;0.80;0.80;;;9.60;64.20;;;9.45;49.37;95485.78;4994190;28;20194;-18
2023/02/17 03:23:12;;;;;;;0.50;0.50;;;9.60;64.20;;;9.50;49.67;95482.66;4994187;28;20182;-17
2023/02/17 03:25:39;;;;;;;0.60;0.60;;;9.70;64.20;;;9.55;49.49;95478.53;4993075;28;20669;-18
2023/02/17 03:28:07;;;;;;;0.70;0.70;;;9.70;64.30;;;9.55;50.05;95470.66;4992932;28;20240;-18
2023/02/17 03:30:35;;;;;;;0.60;0.60;;;9.80;64.40;;;9.56;49.56;95480.16;4993069;28;20194;-17
2023/02/17 03:33:02;;;;;;;0.63;0.63;;;9.70;64.30;;;9.54;50.38;95476.88;4993987;28;20190;-18
2023/02/17 03:35:29;;;;;;;0.60;0.60;;;9.70;64.60;;;9.52;50.30;95478.06;4993972;28;20600;-18
2023/02/17 03:37:56;;;;;;;0.60;0.60;;;9.70;64.70;;;9.47;50.77;95480.38;4993815;28;20198;-18
2023/02/17 03:40:23;;;;;;;0.60;0.60;;;9.70;64.90;;;9.42;50.38;95468.63;4994078;28;20535;-18
2023/02/17 03:42:50;;;;;;;0.80;0.80;;;9.70;64.70;;;9.39;50.29;95484.66;4993838;28;20201;-17
2023/02/17 03:45:17;;;;;;;0.75;0.75;;;9.60;64.70;;;9.38;50.61;95469.13;4993717;28;20217;-17
2023/02/17 03:47:43;;;;;;;0.60;0.60;;;9.60;65.00;;;9.38;50.97;95474.38;4992514;28;20198;-17
2023/02/17 03:50:10;;;;;;;0.80;0.80;;;9.60;65.10;;;9.34;50.82;95467.81;4993755;28;20198;-17
2023/02/17 03:52:37;;;;;;;0.82;0.82;;;9.50;64.80;;;9.28;51.63;95478.00;4993678;28;20197;-17
2023/02/17 03:55:05;;;;;;;0.70;0.70;;;9.60;65.40;;;9.25;51.82;95487.97;4993859;28;20228;-17
2023/02/17 03:57:33;;;;;;;0.70;0.70;;;9.50;65.50;;;9.22;51.46;95478.66;4993569;28;20561;-17
2023/02/17 04:00:00;;;;;;;0.70;0.70;;;9.40;65.20;;;9.22;51.30;95483.91;4993587;28;20194;-17
2023/02/17 04:02:27;;;;;;;0.70;0.70;;;9.40;65.30;;;9.18;51.31;95477.38;4993798;28;20201;-18
2023/02/17 04:04:54;;;;;;;0.60;0.60;;;9.40;65.30;;;9.13;52.49;95483.13;4993480;28;20192;-17
2023/02/17 04:07:21;;;;;;;0.60;0.60;;;9.40;65.90;;;9.13;51.63;95488.34;4993213;28;20694;-18
2023/02/17 04:09:49;;;;;;;0.70;0.70;;;9.30;65.70;;;9.12;52.75;95488.53;4993715;28;20205;-17
2023/02/17 04:12:16;;;;;;;0.63;0.63;;;9.30;66.00;;;9.03;52.41;95479.06;4993504;28;20255;-17
2023/02/17 04:14:43;;;;;;;0.70;0.70;;;9.30;66.00;;;9.02;51.82;95474.81;4993628;28;20197;-18
2023/02/17 04:17:09;;;;;;;0.70;0.70;;;9.20;65.70;;;8.94;52.28;95473.84;4993298;28;20193;-18
2023/02/17 04:19:37;;;;;;;0.60;0.60;;;9.20;66.00;;;8.91;51.88;95482.03;4993437;28;20189;-18
2023/02/17 04:22:07;;;;;;;0.60;0.60;;;9.10;65.60;;;8.87;51.66;95482.53;4993371;28;20248;-17
2023/02/17 04:24:36;;;;;;;0.70;0.70;;;9.10;65.60;;;8.79;52.31;95471.09;4993550;28;20213;-17
2023/02/17 04:27:04;;;;;;;0.60;0.60;;;9.00;65.90;;;8.70;52.55;95466.06;4993414;28;20271;-17
2023/02/17 04:29:32;;;;;;;0.80;0.80;;;9.00;66.00;;;8.63;53.86;95468.53;4993295;28;20202;-18
2023/02/17 04:31:59;;;;;;;0.60;0.60;;;8.90;66.80;;;8.60;53.06;95455.78;4993353;28;20206;-17
2023/02/17 04:34:27;;;;;;;0.60;0.60;;;8.80;66.70;;;8.58;54.34;95453.34;4993088;28;20198;-18
2023/02/17 04:36:54;;;;;;;0.60;0.60;;;8.80;67.20;;;8.58;54.22;95449.88;4993089;28;20204;-17
2023/02/17 04:39:21;;;;;;;0.60;0.60;;;8.80;67.20;;;8.62;54.34;95445.97;4992964;28;20629;-17
2023/02/17 04:41:48;;;;;;;0.80;0.80;;;8.80;67.60;;;8.64;54.22;95450.06;4993007;28;20194;-17
2023/02/17 04:44:15;;;;;;;0.70;0.70;;;8.80;67.60;;;8.68;54.21;95440.06;4992117;28;20614;-17
2023/02/17 04:46:42;;;;;;;0.70;0.70;;;8.80;67.50;;;8.74;54.09;95451.66;4993391;28;20225;-17
2023/02/17 04:49:09;;;;;;;0.65;0.65;;;8.80;67.60;;;8.78;53.82;95453.78;4991861;28;20258;-17
2023/02/17 04:51:36;;;;;;;0.65;0.65;;;8.90;67.30;;;8.82;53.75;95446.41;4992049;28;20194;-17
2023/02/17 04:54:03;;;;;;;0.70;0.70;;;8.90;67.30;;;8.80;53.63;95453.59;4992002;28;20190;-17
2023/02/17 04:56:30;;;;;;;0.60;0.60;;;8.90;67.30;;;8.86;53.86;95452.13;4992783;28;20625;-17
2023/02/17 04:58:57;;;;;;;0.60;0.60;;;8.90;67.30;;;8.84;53.41;95451.47;4992218;28;20202;-17
2023/02/17 05:01:24;;;;;;;0.55;0.55;;;8.90;67.20;;;8.85;53.35;95450.47;4992730;28;20198;-17
2023/02/17 05:03:51;;;;;;;0.60;0.60;;;8.90;67.10;;;8.86;53.53;95455.56;4992862;28;20202;-17
2023/02/17 05:06:18;;;;;;;0.70;0.70;;;9.00;67.20;;;8.84;52.85;95444.44;4992588;28;20229;-17
2023/02/17 05:08:47;;;;;;;0.50;0.50;;;9.00;66.90;;;8.86;53.53;95445.09;4991732;28;20503;-17
2023/02/17 05:11:14;;;;;;;0.50;0.50;;;9.00;67.40;;;8.82;53.39;95449.03;4992609;28;20200;-17
2023/02/17 05:13:41;;;;;;;0.80;0.80;;;8.90;67.10;;;8.82;53.33;95446.41;4992757;28;20205;-17
2023/02/17 05:16:08;;;;;;;0.50;0.50;;;9.00;67.10;;;8.81;53.30;95450.00;4992592;28;20194;-17
2023/02/17 05:18:35;;;;;;;0.63;0.63;;;8.90;67.10;;;8.81;53.40;95444.78;4992432;28;20259;-17
2023/02/17 05:21:02;;;;;;;0.65;0.65;;;9.00;67.20;;;8.82;53.30;95441.19;4992570;28;20197;-17
2023/02/17 05:23:29;;;;;;;0.80;0.80;;;9.00;67.00;;;8.77;53.33;95433.81;4992611;28;20198;-17
2023/02/17 05:25:56;;;;;;;0.68;0.68;;;8.90;66.90;;;8.78;53.30;95440.69;4992629;28;20217;-17
2023/02/17 05:28:23;;;;;;;0.70;0.70;;;8.90;67.00;;;8.76;53.10;95434.84;4992295;28;20273;-17
2023/02/17 05:30:50;;;;;;;0.65;0.65;;;8.90;66.90;;;8.78;53.02;95445.13;4992437;28;20191;-17
2023/02/17 05:33:17;;;;;;;0.70;0.70;;;8.90;67.00;;;8.68;53.18;95441.84;4992317;28;20198;-17
2023/02/17 05:35:44;;;;;;;0.70;0.70;;;8.90;67.10;;;8.69;52.98;95439.09;4992585;28;20194;-17
2023/02/17 05:38:11;;;;;;;0.70;0.70;;;8.80;67.00;;;8.68;52.85;95436.63;4992151;28;20190;-17
2023/02/17 05:40:38;;;;;;;0.70;0.70;;;8.80;66.90;;;8.71;52.83;95438.94;4992315;28;20263;-17
2023/02/17 05:43:05;;;;;;;0.68;0.68;;;8.80;66.90;;;8.71;53.09;95441.53;4992243;28;20198;-17
2023/02/17 05:45:32;;;;;;;0.80;0.80;;;8.80;66.90;;;8.71;52.99;95438.94;4992117;28;20225;-17
2023/02/17 05:47:59;;;;;;;0.70;0.70;;;8.80;67.00;;;8.70;53.08;95434.66;4992019;28;20232;-17
2023/02/17 05:50:26;;;;;;;0.90;0.90;;;8.80;67.10;;;8.68;52.85;95442.69;4992108;28;20194;-17
2023/02/17 05:53:01;;;;;;;0.60;0.60;;;8.80;67.10;;;8.74;52.57;95434.19;4992345;28;20197;-17
2023/02/17 05:55:28;;;;;;;0.70;0.70;;;8.80;67.00;;;8.79;52.66;95441.53;4992072;28;20544;-17
2023/02/17 05:57:55;;;;;;;0.60;0.60;;;8.80;66.90;;;8.81;52.23;95429.91;4991952;28;20190;-17
2023/02/17 06:00:23;;;;;;;0.65;0.65;;;8.90;66.90;;;8.86;52.28;95433.81;4992037;28;20280;-17
2023/02/17 06:02:50;;;;;;;0.68;0.68;;;8.90;66.70;;;8.88;51.99;95426.63;4992225;28;20633;-17
2023/02/17 06:05:17;;;;;;;0.60;0.60;;;9.00;66.70;;;8.90;52.00;95417.63;4991184;28;20536;-18
2023/02/17 06:07:44;;;;;;;0.60;0.60;;;9.00;66.50;;;8.96;51.97;95416.13;4991684;28;20245;-17
2023/02/17 06:10:11;;;;;;;0.60;0.60;;;9.10;66.50;;;8.99;51.76;95414.97;4993207;28;20195;-18
2023/02/17 06:12:38;;;;;;;0.68;0.68;;;9.10;66.40;;;9.06;51.68;95415.94;4995223;28;20198;-17
2023/02/17 06:15:06;;;;;;;0.70;0.70;;;9.10;66.30;;;9.10;51.58;95415.41;4995217;28;20209;-17
2023/02/17 06:17:33;;;;;;;0.50;0.50;;;9.20;66.30;;;9.13;51.25;95420.31;4995179;28;20190;-17
2023/02/17 06:20:00;;;;;;;0.60;0.60;;;9.30;66.20;;;9.10;51.45;95411.97;4994950;28;20197;-17
2023/02/17 06:22:27;;;;;;;0.70;0.70;;;9.20;66.20;;;9.14;51.40;95413.25;4995077;28;20197;-17
2023/02/17 06:24:54;;;;;;;0.70;0.70;;;9.30;66.10;;;9.21;51.16;95411.59;4995012;28;20592;-17
2023/02/17 06:27:21;;;;;;;0.70;0.70;;;9.30;66.10;;;9.24;51.31;95410.44;4995785;28;20504;-17
2023/02/17 06:29:48;;;;;;;0.80;0.80;;;9.40;66.10;;;9.31;50.91;95419.25;4994836;28;20198;-17
2023/02/17 06:32:16;;;;;;;0.70;0.70;;;9.40;66.10;;;9.36;50.85;95419.56;4995169;28;20217;-17
2023/02/17 06:34:43;;;;;;;0.80;0.80;;;9.50;66.10;;;9.37;50.64;95422.97;4994922;28;20599;-17
2023/02/17 06:37:10;;;;;;;0.60;0.60;;;9.50;66.00;;;9.46;50.72;95416.72;4994027;28;20531;-17
2023/02/17 06:39:37;;;;;;;0.80;0.80;;;9.60;66.00;;;9.49;50.48;95405.91;4994685;28;20194;-17
2023/02/17 06:42:04;;;;;;;0.60;0.60;;;9.60;65.80;;;9.53;50.35;95412.44;4993979;28;20281;-17
2023/02/17 06:44:31;;;;;;;0.90;0.90;;;9.70;65.80;;;9.60;50.37;95404.69;4993880;28;20642;-18
2023/02/17 06:46:58;;;;;;;0.50;0.50;;;9.70;65.70;;;9.67;49.94;95418.72;4994897;28;20229;-17
2023/02/17 06:49:25;;;;;;;0.60;0.60;;;9.70;65.60;;;9.67;49.93;95402.22;4994560;28;20580;-17
2023/02/17 06:51:52;;;;;;;0.80;0.80;;;9.80;65.50;;;9.75;49.85;95410.81;4994657;28;20200;-17
2023/02/17 06:54:19;;;;;;;0.80;0.80;;;9.80;65.40;;;9.75;49.74;95413.44;4995014;28;20198;-17
2023/02/17 06:56:46;;;;;;;0.70;0.70;;;9.90;65.30;;;9.80;49.72;95415.50;4994603;28;20200;-17
2023/02/17 06:59:13;;;;;;;0.60;0.60;;;9.90;65.30;;;9.87;49.56;95413.03;4993772;28;20496;-17
2023/02/17 07:01:40;;;;;;;0.60;0.60;;;10.00;63.90;;;9.93;49.46;95413.13;4994579;28;20641;-17
2023/02/17 07:04:07;;;;;;;0.70;0.70;;;10.00;63.90;;;9.99;49.43;95414.25;4994830;28;20194;-18
2023/02/17 07:06:34;;;;;;;0.60;0.60;;;10.10;63.90;;;10.00;49.27;95413.25;4994205;28;20665;-17
2023/02/17 07:09:02;;;;;;;0.60;0.60;;;10.10;63.70;;;10.09;49.10;95424.47;4994254;28;20197;-17
2023/02/17 07:11:31;;;;;;;0.80;0.80;;;10.20;63.70;;;10.16;49.25;95414.13;4993768;28;20242;-18
2023/02/17 07:13:59;;;;;;;0.70;0.70;;;10.30;63.70;;;10.20;48.92;95412.78;4994309;28;20193;-17
2023/02/17 07:16:26;;;;;;;0.70;0.70;;;10.30;63.50;;;10.23;48.85;95426.34;4994346;28;20226;-17
2023/02/17 07:18:53;;;;;;;0.60;0.60;;;10.30;63.50;;;10.26;48.85;95417.31;4994154;28;20202;-17
2023/02/17 07:21:20;;;;;;;0.60;0.60;;;10.40;63.50;;;10.32;48.62;95418.41;4993969;28;20190;-17
2023/02/17 07:23:47;;;;;;;0.60;0.60;;;10.50;63.40;;;10.37;48.64;95414.28;4994155;28;20626;-17
2023/02/17 07:26:14;;;;;;;0.60;0.60;;;10.50;63.20;;;10.35;48.43;95404.94;4993174;28;20695;-17
2023/02/17 07:28:41;;;;;;;0.50;0.50;;;10.50;63.20;;;10.40;48.63;95411.31;4993929;28;20694;-18
2023/02/17 07:31:12;;;;;;;0.70;0.70;;;10.60;63.30;;;10.47;48.06;95407.97;4994035;28;20220;-17
2023/02/17 07:33:40;;;;;;;0.80;0.80;;;10.60;63.00;;;10.49;48.43;95421.72;4994207;28;20261;-17
2023/02/17 07:36:14;;;;;;;0.60;0.60;;;10.60;63.10;;;10.53;48.23;95415.97;4994275;28;20205;-18
2023/02/17 07:38:42;;;;;;;0.60;0.60;;;10.70;63.10;;;10.57;48.33;95411.16;4993854;28;20189;-17
2023/02/17 07:41:15;;;;;;;0.80;0.80;;;10.70;63.10;;;10.64;48.24;95419.13;4993990;28;20201;-17
2023/02/17 07:43:44;;;;;;;0.60;0.60;;;10.80;63.10;;;10.68;48.12;95410.72;4994170;28;20189;-17
2023/02/17 07:46:12;;;;;;;0.60;0.60;;;10.80;63.10;;;10.76;48.66;95422.13;4992788;28;20218;-18
2023/02/17 07:48:39;;;;;;;0.70;0.70;;;10.90;63.50;;;10.81;48.96;95423.19;4994349;28;20211;-18
2023/02/17 07:51:12;;;;;;;0.60;0.60;;;11.00;63.50;;;10.84;49.11;95422.84;4993820;28;20201;-17
2023/02/17 07:53:39;;;;;;;0.70;0.70;;;11.00;63.60;;;10.84;49.25;95420.22;4992967;28;20193;-17
2023/02/17 07:56:12;;;;;;;0.70;0.70;;;11.00;63.50;;;10.82;49.01;95411.72;4994075;28;20201;-17
2023/02/17 07:58:41;;;;;;;0.57;0.57;;;11.00;63.60;;;10.84;49.49;95414.13;4993839;28;20201;-17
2023/02/17 08:01:12;;;;;;;0.63;0.63;;;11.00;64.80;;;10.93;49.58;95412.25;4992681;28;20210;-17
2023/02/17 08:03:40;;;;;;;0.60;0.60;;;11.10;63.90;;;10.92;49.67;95421.94;4993690;28;20182;-17
2023/02/17 08:06:14;;;;;;;0.70;0.70;;;11.10;63.80;;;10.92;49.61;95418.50;4993289;28;20729;-18
2023/02/17 08:14:16;;;;;;;0.60;0.60;;;11.20;64.20;;;11.03;50.33;95420.66;4993538;28;20185;-18
2023/02/17 08:16:43;;;;;;;0.60;0.60;;;11.20;64.20;;;11.04;50.69;95422.31;4992515;28;20572;-17
2023/02/17 08:19:10;;;;;;;0.60;0.60;;;11.30;64.40;;;11.07;50.88;95418.50;4992344;28;20193;-17
2023/02/17 08:21:37;;;;;;;0.70;0.70;;;11.30;64.60;;;11.12;51.24;95414.34;4993579;28;20208;-17
2023/02/17 08:24:04;;;;;;;0.60;0.60;;;11.30;64.70;;;11.14;50.97;95414.16;4992331;28;20202;-17
2023/02/17 08:26:31;;;;;;;0.60;0.60;;;11.40;64.80;;;11.18;51.58;95420.66;4993404;28;20221;-17
2023/02/17 08:28:58;;;;;;;0.60;0.60;;;11.40;65.00;;;11.21;51.72;95422.91;4993038;28;20220;-17
2023/02/17 08:31:29;;;;;;;0.70;0.70;;;11.50;65.20;;;11.20;52.15;95416.03;4993161;28;20227;-17
2023/02/17 08:33:59;;;;;;;0.50;0.50;;;11.50;65.30;;;11.17;52.21;95411.97;4992498;28;20188;-17
2023/02/17 08:36:28;;;;;;;0.60;0.60;;;11.50;65.50;;;11.22;52.34;95416.69;4993617;28;20513;-18
2023/02/17 08:38:57;;;;;;;0.60;0.60;;;11.50;65.60;;;11.26;52.26;95415.31;4993157;28;20201;-18
2023/02/17 08:41:34;;;;;;;0.60;0.60;;;11.50;65.50;;;11.30;52.36;95405.25;4993030;28;20578;-17
2023/02/17 08:44:08;;;;;;;0.80;0.80;;;11.60;65.70;;;11.35;52.52;95401.09;4993066;28;20181;-17
2023/02/17 08:46:36;;;;;;;0.60;0.60;;;11.60;65.90;;;11.45;52.81;95410.47;4993177;28;20591;-17
2023/02/17 08:49:05;;;;;;;0.60;0.60;;;11.70;66.00;;;11.50;52.78;95405.50;4992803;28;20272;-18
2023/02/17 08:51:33;;;;;;;0.50;0.50;;;11.70;66.10;;;11.52;52.96;95390.34;4992029;28;20609;-17
2023/02/17 08:54:02;;;;;;;0.80;0.80;;;11.80;66.20;;;11.59;53.02;95398.31;4992841;28;20193;-17
2023/02/17 08:56:30;;;;;;;0.60;0.60;;;11.80;66.20;;;11.64;53.15;95401.19;4992217;28;20213;-17
2023/02/17 08:58:58;;;;;;;0.50;0.50;;;11.90;66.40;;;11.67;53.31;95406.88;4975862;28;20213;-17
2023/02/17 09:01:25;;;;;;;0.80;0.80;;;12.00;66.60;;;11.71;53.32;95409.16;4992715;28;20686;-17
2023/02/17 09:03:55;;;;;;;0.60;0.60;;;11.90;66.50;;;11.78;53.12;95413.47;4992788;28;20225;-17
2023/02/17 09:06:22;;;;;;;0.70;0.70;;;12.00;66.50;;;11.80;53.37;95411.47;4992573;28;20272;-17
2023/02/17 09:08:49;;;;;;;0.57;0.57;;;12.10;66.70;;;11.81;53.43;95414.91;4992657;28;20204;-17
2023/02/17 09:11:18;;;;;;;0.70;0.70;;;12.10;66.60;;;11.84;53.51;95412.72;4992650;28;20201;-17
2023/02/17 09:13:46;;;;;;;0.60;0.60;;;12.10;66.80;;;11.87;53.60;95414.16;4993150;28;20190;-17
2023/02/17 09:16:13;;;;;;;0.60;0.60;;;12.10;66.80;;;11.98;53.56;95412.88;4991782;28;20264;-17
2023/02/17 09:18:40;;;;;;;0.60;0.60;;;12.20;66.90;;;11.99;53.77;95411.88;4975609;28;20211;-17
2023/02/17 09:21:11;;;;;;;0.60;0.60;;;12.30;67.00;;;12.02;53.66;95406.22;4992485;28;20190;-17
2023/02/17 09:23:39;;;;;;;0.60;0.60;;;12.30;67.00;;;12.13;53.70;95425.94;4992618;28;20523;-18
2023/02/17 09:26:11;;;;;;;0.80;0.80;;;12.30;67.00;;;12.15;53.66;95418.69;4992407;28;20189;-17
2023/02/17 09:28:39;;;;;;;0.65;0.65;;;12.40;67.10;;;12.19;53.73;95413.88;4992506;28;20217;-18
2023/02/17 09:31:20;;;;;;;0.70;0.70;;;12.50;67.10;;;12.27;53.53;95417.16;4991458;28;20201;-17
2023/02/17 09:33:49;;;;;;;0.60;0.60;;;12.50;66.90;;;12.34;53.32;95409.34;4992626;28;20610;-17
2023/02/17 09:36:23;;;;;;;0.50;0.50;;;12.60;66.90;;;12.33;53.43;95419.03;4992390;28;20189;-17
2023/02/17 09:38:51;;;;;;;0.70;0.70;;;12.60;66.80;;;12.42;53.32;95418.91;4991509;28;20609;-17
2023/02/17 09:41:26;;;;;;;0.60;0.60;;;12.70;67.20;;;12.45;53.43;95431.66;4992469;28;20190;-17
2023/02/17 09:43:54;;;;;;;0.60;0.60;;;12.70;66.70;;;12.35;53.41;95418.84;4991433;28;20210;-17
2023/02/17 09:46:29;;;;;;;0.60;0.60;;;12.70;66.70;;;12.38;53.51;95425.53;4994959;28;20206;-17
2023/02/17 09:49:22;;;;;;;0.60;0.60;;;12.70;66.80;;;12.30;53.82;95426.50;4994804;28;20177;-17
2023/02/17 09:52:04;;;;;;;0.80;0.80;;;12.70;67.00;;;12.27;53.74;95421.63;4994837;28;20533;-17
2023/02/17 09:54:48;;;;;;;0.50;0.50;;;12.70;67.10;;;12.21;54.12;95407.41;4995742;28;20201;-17
2023/02/17 09:57:19;;;;;;;0.60;0.60;;;12.60;67.30;;;12.22;54.09;95422.19;4978823;28;20592;-17
2023/02/17 10:00:16;;;;;;;0.63;0.63;;;12.70;67.30;;;12.32;53.78;95409.53;4978480;28;20185;-17
2023/02/17 10:02:59;;;;;;;0.60;0.60;;;12.60;67.10;;;12.43;53.37;95404.75;4978715;28;20205;-17
2023/02/17 10:05:35;;;;;;;0.60;0.60;;;12.70;67.10;;;12.46;53.21;95399.09;4994690;28;20597;-18
2023/02/17 10:08:13;;;;;;;0.70;0.70;;;12.80;66.90;;;12.56;53.07;95409.28;4994474;28;20259;-17
2023/02/17 10:10:54;;;;;;;0.80;0.80;;;12.80;66.80;;;12.64;52.83;95391.53;4994522;28;20206;-17
2023/02/17 10:13:26;;;;;;;0.70;0.70;;;12.90;66.70;;;12.68;52.57;95418.28;4994676;28;20207;-17
2023/02/17 10:15:59;;;;;;;0.50;0.50;;;12.90;66.50;;;12.72;52.40;95395.00;4994669;28;20234;-17
2023/02/17 10:18:40;;;;;;;0.65;0.65;;;13.00;66.40;;;12.76;52.24;95391.00;4994560;28;20186;-17
2023/02/17 10:21:22;;;;;;;0.60;0.60;;;13.00;66.30;;;12.85;51.96;95381.13;4994249;28;20610;-17
2023/02/17 10:23:53;;;;;;;0.70;0.70;;;13.10;66.10;;;12.88;51.59;95371.03;4994396;28;20195;-18
2023/02/17 10:26:55;;;;;;;0.60;0.60;;;13.20;65.90;;;12.96;51.59;95368.25;4995636;28;20186;-17
2023/02/17 10:29:43;;;;;;;0.70;0.70;;;13.20;65.80;;;13.11;50.96;95373.38;4994215;28;20193;-17
2023/02/17 10:32:24;;;;;;;0.80;0.80;;;13.40;65.70;;;13.11;50.70;95360.19;4995454;28;20224;-17
2023/02/17 10:35:14;;;;;;;0.50;0.50;;;13.50;65.20;;;13.10;50.80;95381.47;4994984;28;20668;-18
2023/02/17 10:37:48;;;;;;;0.60;0.60;;;13.50;65.30;;;13.11;50.61;95383.91;4994942;28;20193;-17
2023/02/17 10:40:26;;;;;;;0.60;0.60;;;13.50;65.10;;;12.98;50.88;95379.38;4994990;28;20301;-18
2023/02/17 10:42:57;;;;;;;0.50;0.50;;;13.40;65.10;;;12.75;51.46;95427.03;4995080;28;20201;-17
2023/02/17 10:45:39;;;;;;;0.60;0.60;;;13.40;65.20;;;12.62;52.25;95380.41;4978571;28;20228;-17
2023/02/17 10:48:11;;;;;;;0.60;0.60;;;13.20;65.60;;;12.58;52.00;95358.09;4994935;28;20629;-17
2023/02/17 10:50:41;;;;;;;0.80;0.80;;;13.00;65.60;;;12.53;52.35;95370.22;4977674;28;20250;-17